createdAt,value
2018-09-03T00:00:46.907Z,14.20
2018-09-03T00:03:15.451Z,14.20
2018-09-03T00:05:44.006Z,14.30
2018-09-03T00:08:12.570Z,14.20
2018-09-03T00:10:41.183Z,14.10
2018-09-03T00:13:09.739Z,14.10
2018-09-03T00:15:38.312Z,14.10
2018-09-03T00:18:06.869Z,14.00
2018-09-03T00:20:35.446Z,14.00
2018-09-03T00:23:04.015Z,13.90
2018-09-03T00:25:32.557Z,13.80
2018-09-03T00:28:01.104Z,13.80
2018-09-03T00:30:29.661Z,13.70
2018-09-03T00:33:03.487Z,13.70
2018-09-03T00:35:37.402Z,13.70
2018-09-03T00:38:11.240Z,13.60
2018-09-03T00:40:45.151Z,13.60
2018-09-03T00:43:18.994Z,13.70
2018-09-03T00:45:52.891Z,13.70
2018-09-03T00:48:21.765Z,13.60
2018-09-03T00:50:50.415Z,13.60
2018-09-03T00:53:19.042Z,13.60
2018-09-03T00:55:47.594Z,13.60
2018-09-03T00:58:16.315Z,13.60
2018-09-03T01:00:44.906Z,13.60
2018-09-03T01:03:13.465Z,13.60
2018-09-03T01:05:42.294Z,13.50
2018-09-03T01:08:10.880Z,13.50
2018-09-03T01:10:39.422Z,13.60
2018-09-03T01:13:07.984Z,13.50
2018-09-03T01:15:36.567Z,13.50
2018-09-03T01:18:05.123Z,13.50
2018-09-03T01:20:33.694Z,13.50
2018-09-03T01:23:02.632Z,13.40
2018-09-03T01:25:31.181Z,13.40
2018-09-03T01:27:59.727Z,13.40
2018-09-03T01:30:28.290Z,13.40
2018-09-03T01:32:56.840Z,13.40
2018-09-03T01:35:25.398Z,13.40
2018-09-03T01:37:53.939Z,13.40
2018-09-03T01:40:22.511Z,13.30
2018-09-03T01:42:51.072Z,13.20
2018-09-03T01:45:19.843Z,13.20
2018-09-03T01:47:48.435Z,13.20
2018-09-03T01:50:16.987Z,13.20
2018-09-03T01:52:45.541Z,13.20
2018-09-03T01:55:14.087Z,13.10
2018-09-03T01:57:42.839Z,13.10
2018-09-03T02:00:11.403Z,13.10
2018-09-03T02:02:39.963Z,13.00
2018-09-03T02:05:08.623Z,13.00
2018-09-03T02:07:37.215Z,12.90
2018-09-03T02:10:06.472Z,13.00
2018-09-03T02:12:35.026Z,12.90
2018-09-03T02:15:03.580Z,12.90
2018-09-03T02:17:32.288Z,12.80
2018-09-03T02:20:00.840Z,12.80
2018-09-03T02:22:29.393Z,12.80
2018-09-03T02:24:57.998Z,12.80
2018-09-03T02:27:26.838Z,12.80
2018-09-03T02:29:55.391Z,12.80
2018-09-03T02:32:23.944Z,12.80
2018-09-03T02:34:52.721Z,12.80
2018-09-03T02:37:21.291Z,12.80
2018-09-03T02:39:49.863Z,12.70
2018-09-03T02:42:18.414Z,12.70
2018-09-03T02:44:46.993Z,12.60
2018-09-03T02:47:15.919Z,12.60
2018-09-03T02:49:44.527Z,12.60
2018-09-03T02:52:13.087Z,12.50
2018-09-03T02:54:41.797Z,12.50
2018-09-03T02:57:10.355Z,12.50
2018-09-03T02:59:39.267Z,12.50
2018-09-03T03:02:07.828Z,12.50
2018-09-03T03:04:36.387Z,12.40
2018-09-03T03:07:05.434Z,12.50
2018-09-03T03:09:33.984Z,12.40
2018-09-03T03:12:02.536Z,12.40
2018-09-03T03:14:31.283Z,12.40
2018-09-03T03:16:59.836Z,12.40
2018-09-03T03:19:28.403Z,12.40
2018-09-03T03:21:56.959Z,12.30
2018-09-03T03:24:25.518Z,12.30
2018-09-03T03:26:54.280Z,12.30
2018-09-03T03:29:22.855Z,12.30
2018-09-03T03:31:51.430Z,12.30
2018-09-03T03:34:19.979Z,12.20
2018-09-03T03:36:48.559Z,12.20
2018-09-03T03:39:17.530Z,12.10
2018-09-03T03:41:46.270Z,12.10
2018-09-03T03:44:14.810Z,12.10
2018-09-03T03:46:43.387Z,12.10
2018-09-03T03:49:12.030Z,12.10
2018-09-03T03:51:40.584Z,12.10
2018-09-03T03:54:09.131Z,12.10
2018-09-03T03:56:37.675Z,12.00
2018-09-03T03:59:06.479Z,12.00
2018-09-03T04:01:35.032Z,12.00
2018-09-03T04:04:04.186Z,11.90
2018-09-03T04:06:32.772Z,12.00
2018-09-03T04:09:01.338Z,12.00
2018-09-03T04:11:29.905Z,12.00
2018-09-03T04:13:58.787Z,12.00
2018-09-03T04:16:27.654Z,12.00
2018-09-03T04:18:56.207Z,12.00
2018-09-03T04:21:25.056Z,12.00
2018-09-03T04:23:53.615Z,12.00
2018-09-03T04:26:22.171Z,12.00
2018-09-03T04:28:50.801Z,12.00
2018-09-03T04:31:19.346Z,12.00
2018-09-03T04:33:47.951Z,12.00
2018-09-03T04:36:16.509Z,12.00
2018-09-03T04:38:45.096Z,12.00
2018-09-03T04:41:13.643Z,12.00
2018-09-03T04:43:42.206Z,12.00
2018-09-03T04:46:10.956Z,12.10
2018-09-03T04:48:39.519Z,12.10
2018-09-03T04:51:08.086Z,12.10
2018-09-03T04:53:36.648Z,12.20
2018-09-03T04:56:05.231Z,12.20
2018-09-03T04:58:33.794Z,12.20
2018-09-03T05:01:02.349Z,12.20
2018-09-03T05:03:31.210Z,12.20
2018-09-03T05:05:59.828Z,12.30
2018-09-03T05:08:28.663Z,12.30
2018-09-03T05:10:57.214Z,12.30
2018-09-03T05:13:25.770Z,12.40
2018-09-03T05:15:54.680Z,12.50
2018-09-03T05:18:23.301Z,12.50
2018-09-03T05:20:51.893Z,12.50
2018-09-03T05:23:20.495Z,12.50
2018-09-03T05:25:49.075Z,12.60
2018-09-03T05:28:17.871Z,12.60
2018-09-03T05:30:46.472Z,12.80
2018-09-03T05:33:15.101Z,12.80
2018-09-03T05:35:43.657Z,12.80
2018-09-03T05:38:12.236Z,12.90
2018-09-03T05:40:41.543Z,12.90
2018-09-03T05:43:10.177Z,13.00
2018-09-03T05:45:38.698Z,13.10
2018-09-03T05:48:07.271Z,13.20
2018-09-03T05:50:35.832Z,13.30
2018-09-03T05:53:04.465Z,13.40
2018-09-03T05:55:33.182Z,13.50
2018-09-03T05:58:01.891Z,13.60
2018-09-03T06:00:30.619Z,13.70
2018-09-03T06:02:59.186Z,13.80
2018-09-03T06:05:27.751Z,13.90
2018-09-03T06:07:56.408Z,14.00
2018-09-03T06:10:25.144Z,14.10
2018-09-03T06:12:53.679Z,14.20
2018-09-03T06:15:22.308Z,14.30
2018-09-03T06:17:50.887Z,14.50
2018-09-03T06:20:19.664Z,14.50
2018-09-03T06:22:48.324Z,14.60
2018-09-03T06:25:16.877Z,14.80
2018-09-03T06:27:45.439Z,14.90
2018-09-03T06:30:14.027Z,15.00
2018-09-03T06:32:42.611Z,15.10
2018-09-03T06:35:11.178Z,15.20
2018-09-03T06:37:39.730Z,15.40
2018-09-03T06:40:08.370Z,15.50
2018-09-03T06:42:37.007Z,15.70
2018-09-03T06:45:05.790Z,15.80
2018-09-03T06:47:34.419Z,15.90
2018-09-03T06:51:32.869Z,16.00
2018-09-03T06:54:01.540Z,16.10
2018-09-03T06:56:30.970Z,16.30
2018-09-03T06:58:59.557Z,16.40
2018-09-03T07:01:28.189Z,16.50
2018-09-03T07:03:56.847Z,16.60
2018-09-03T07:06:25.419Z,16.70
2018-09-03T07:08:53.968Z,16.90
2018-09-03T07:11:22.537Z,17.00
2018-09-03T07:13:51.111Z,17.10
2018-09-03T07:16:19.671Z,17.20
2018-09-03T07:18:48.675Z,17.30
2018-09-03T07:21:17.226Z,17.40
2018-09-03T07:23:45.786Z,17.50
2018-09-03T07:26:14.379Z,17.60
2018-09-03T07:28:42.954Z,17.70
2018-09-03T07:31:11.751Z,17.80
2018-09-03T07:33:40.337Z,18.00
2018-09-03T07:36:08.902Z,18.10
2018-09-03T07:38:37.458Z,18.20
2018-09-03T07:41:06.391Z,18.30
2018-09-03T07:43:35.004Z,18.40
2018-09-03T07:46:03.640Z,18.60
2018-09-03T07:48:32.376Z,18.70
2018-09-03T07:51:01.001Z,18.90
2018-09-03T07:53:29.543Z,19.00
2018-09-03T07:55:58.110Z,19.10
2018-09-03T07:58:26.670Z,19.30
2018-09-03T08:00:55.555Z,19.50
2018-09-03T08:03:24.119Z,19.50
2018-09-03T08:05:52.963Z,19.60
2018-09-03T08:08:21.604Z,19.60
2018-09-03T08:10:50.183Z,19.70
2018-09-03T08:13:24.334Z,19.90
2018-09-03T08:15:52.901Z,20.00
2018-09-03T08:18:21.514Z,20.60
2018-09-03T08:20:50.063Z,20.70
2018-09-03T08:23:18.621Z,21.00
2018-09-03T08:25:47.576Z,20.90
2018-09-03T08:28:16.425Z,20.90
2018-09-03T08:30:45.029Z,21.00
2018-09-03T08:33:13.589Z,21.20
2018-09-03T08:35:42.331Z,21.40
2018-09-03T08:38:11.066Z,21.50
2018-09-03T08:40:39.743Z,21.30
2018-09-03T08:43:08.359Z,21.40
2018-09-03T08:45:36.923Z,21.50
2018-09-03T08:48:05.548Z,21.50
2018-09-03T08:50:34.415Z,21.70
2018-09-03T08:53:02.984Z,21.60
2018-09-03T08:55:31.598Z,21.70
2018-09-03T08:58:00.143Z,21.80
2018-09-03T09:00:28.699Z,21.80
2018-09-03T09:02:57.505Z,21.70
2018-09-03T09:05:26.071Z,21.80
2018-09-03T09:07:55.003Z,22.10
2018-09-03T09:10:23.978Z,22.10
2018-09-03T09:12:52.534Z,22.00
2018-09-03T09:15:21.117Z,22.30
2018-09-03T09:17:49.794Z,22.30
2018-09-03T09:20:18.359Z,22.20
2018-09-03T09:22:46.918Z,22.30
2018-09-03T09:25:15.808Z,22.50
2018-09-03T09:27:44.360Z,22.40
2018-09-03T09:30:12.933Z,22.60
2018-09-03T09:32:41.479Z,22.80
2018-09-03T09:35:10.041Z,23.00
2018-09-03T09:37:38.598Z,23.10
2018-09-03T09:40:07.151Z,23.10
2018-09-03T09:42:37.370Z,23.50
2018-09-03T09:45:05.987Z,23.30
2018-09-03T09:47:34.534Z,23.30
2018-09-03T09:50:03.183Z,23.40
2018-09-03T09:52:32.247Z,23.50
2018-09-03T09:55:00.872Z,23.40
2018-09-03T09:57:29.464Z,23.40
2018-09-03T09:59:58.039Z,23.80
2018-09-03T10:02:27.118Z,23.90
2018-09-03T10:04:55.702Z,23.90
2018-09-03T10:07:24.242Z,24.00
2018-09-03T10:09:52.930Z,24.10
2018-09-03T10:12:36.043Z,24.10
2018-09-03T10:15:04.794Z,24.00
2018-09-03T10:17:33.347Z,24.00
2018-09-03T10:20:02.119Z,24.00
2018-09-03T10:22:30.683Z,24.20
2018-09-03T10:24:59.226Z,24.30
2018-09-03T10:27:28.054Z,24.40
2018-09-03T10:29:56.607Z,24.50
2018-09-03T10:32:25.935Z,24.30
2018-09-03T10:34:54.805Z,24.60
2018-09-03T10:37:23.350Z,24.70
2018-09-03T10:39:52.359Z,24.80
2018-09-03T10:42:23.001Z,24.70
2018-09-03T10:44:51.585Z,24.80
2018-09-03T10:47:20.226Z,25.10
2018-09-03T10:49:48.754Z,25.40
2018-09-03T10:52:17.451Z,25.00
2018-09-03T10:54:46.293Z,25.20
2018-09-03T10:57:15.124Z,25.60
2018-09-03T10:59:43.707Z,26.30
2018-09-03T11:02:12.360Z,26.40
2018-09-03T11:04:40.939Z,26.70
2018-09-03T11:07:09.543Z,26.10
2018-09-03T11:09:38.433Z,26.70
2018-09-03T11:12:07.783Z,26.30
2018-09-03T11:14:36.527Z,26.40
2018-09-03T11:17:05.111Z,26.50
2018-09-03T11:19:37.102Z,27.00
2018-09-03T11:22:06.027Z,26.70
2018-09-03T11:24:34.634Z,26.40
2018-09-03T11:27:03.187Z,26.70
2018-09-03T11:29:31.754Z,26.40
2018-09-03T11:32:00.370Z,26.30
2018-09-03T11:34:28.921Z,26.50
2018-09-03T11:36:57.666Z,26.60
2018-09-03T11:39:26.219Z,26.90
2018-09-03T11:41:54.765Z,26.90
2018-09-03T11:44:23.320Z,27.40
2018-09-03T11:46:51.935Z,27.70
2018-09-03T11:49:20.482Z,27.70
2018-09-03T11:51:49.090Z,27.50
2018-09-03T11:54:17.705Z,28.00
2018-09-03T11:56:46.266Z,27.80
2018-09-03T11:59:14.859Z,28.00
2018-09-03T12:01:43.399Z,27.70
2018-09-03T12:04:12.165Z,27.90
2018-09-03T12:06:40.737Z,28.00
2018-09-03T12:09:10.457Z,27.70
2018-09-03T12:11:39.278Z,27.70
2018-09-03T12:14:17.406Z,28.20
2018-09-03T12:16:46.078Z,28.80
2018-09-03T12:19:14.623Z,28.90
2018-09-03T12:21:43.189Z,28.20
2018-09-03T12:24:11.921Z,28.70
2018-09-03T12:26:40.482Z,28.30
2018-09-03T12:29:09.053Z,28.00
2018-09-03T12:31:37.645Z,28.20
2018-09-03T12:34:06.235Z,28.40
2018-09-03T12:36:34.788Z,28.60
2018-09-03T12:39:03.774Z,28.40
2018-09-03T12:41:32.722Z,28.80
2018-09-03T12:44:01.294Z,28.90
2018-09-03T12:46:29.876Z,28.60
2018-09-03T12:48:58.449Z,28.30
2018-09-03T12:51:27.003Z,28.30
2018-09-03T12:53:55.568Z,28.40
2018-09-03T12:56:24.170Z,28.50
2018-09-03T12:58:52.872Z,29.20
2018-09-03T13:01:21.435Z,29.40
2018-09-03T13:03:49.987Z,28.60
2018-09-03T13:06:18.585Z,29.10
2018-09-03T13:08:47.130Z,29.10
2018-09-03T13:11:15.794Z,29.00
2018-09-03T13:13:44.353Z,29.00
2018-09-03T13:16:12.939Z,28.90
2018-09-03T13:18:41.540Z,28.30
2018-09-03T13:21:10.079Z,28.60
2018-09-03T13:23:38.820Z,29.00
2018-09-03T13:26:07.425Z,29.20
2018-09-03T13:28:35.992Z,29.50
2018-09-03T13:31:04.557Z,29.60
2018-09-03T13:33:33.111Z,29.90
2018-09-03T13:36:01.837Z,29.90
2018-09-03T13:38:30.660Z,29.70
2018-09-03T13:40:59.680Z,29.50
2018-09-03T13:43:28.339Z,29.50
2018-09-03T13:45:56.895Z,29.30
2018-09-03T13:48:25.471Z,28.00
2018-09-03T13:50:54.083Z,27.00
2018-09-03T13:53:22.638Z,26.30
2018-09-03T13:55:51.451Z,25.80
2018-09-03T13:58:20.015Z,25.70
2018-09-03T14:00:48.565Z,26.90
2018-09-03T14:03:17.134Z,27.80
2018-09-03T14:05:45.811Z,28.50
2018-09-03T14:08:14.683Z,29.10
2018-09-03T14:10:43.348Z,29.10
2018-09-03T14:13:11.923Z,29.70
2018-09-03T14:15:40.490Z,30.10
2018-09-03T14:18:09.091Z,29.70
2018-09-03T14:20:37.910Z,28.60
2018-09-03T14:23:06.875Z,28.40
2018-09-03T14:25:35.524Z,28.30
2018-09-03T14:28:04.091Z,28.60
2018-09-03T14:30:32.663Z,29.30
2018-09-03T14:33:01.218Z,29.30
2018-09-03T14:35:29.953Z,28.30
2018-09-03T14:37:58.530Z,27.80
2018-09-03T14:40:27.107Z,27.00
2018-09-03T14:42:55.733Z,26.50
2018-09-03T14:45:24.338Z,26.00
2018-09-03T14:47:52.913Z,25.40
2018-09-03T14:50:21.808Z,25.10
2018-09-03T14:52:50.485Z,24.80
2018-09-03T14:55:19.036Z,24.70
2018-09-03T14:57:47.600Z,24.60
2018-09-03T15:00:16.143Z,25.20
2018-09-03T15:02:44.697Z,25.70
2018-09-03T15:05:13.265Z,25.70
2018-09-03T15:07:42.158Z,25.40
2018-09-03T15:10:10.719Z,25.20
2018-09-03T15:12:39.287Z,25.70
2018-09-03T15:15:07.948Z,25.30
2018-09-03T15:17:36.684Z,25.00
2018-09-03T15:20:06.139Z,24.70
2018-09-03T15:22:35.343Z,24.40
2018-09-03T15:25:04.368Z,24.10
2018-09-03T15:27:33.119Z,23.90
2018-09-03T15:30:01.799Z,24.10
2018-09-03T15:32:30.351Z,24.90
2018-09-03T15:34:59.171Z,25.30
2018-09-03T15:37:28.203Z,25.60
2018-09-03T15:39:56.759Z,25.60
2018-09-03T15:42:25.336Z,25.40
2018-09-03T15:44:53.993Z,25.30
2018-09-03T15:47:22.554Z,25.00
2018-09-03T15:49:51.423Z,24.60
2018-09-03T15:52:20.001Z,24.40
2018-09-03T15:54:48.779Z,24.00
2018-09-03T15:57:17.391Z,23.70
2018-09-03T15:59:45.955Z,23.50
2018-09-03T16:02:14.626Z,23.40
2018-09-03T16:04:43.425Z,23.20
2018-09-03T16:07:12.224Z,23.20
2018-09-03T16:09:40.792Z,23.10
2018-09-03T16:12:09.365Z,23.00
2018-09-03T16:14:37.933Z,23.10
2018-09-03T16:17:06.528Z,23.00
2018-09-03T16:19:35.244Z,22.90
2018-09-03T16:22:03.870Z,22.80
2018-09-03T16:24:32.472Z,22.70
2018-09-03T16:27:01.304Z,22.60
2018-09-03T16:29:29.879Z,22.60
2018-09-03T16:31:58.443Z,22.60
2018-09-03T16:34:27.767Z,22.50
2018-09-03T16:36:56.315Z,22.40
2018-09-03T16:39:24.958Z,22.40
2018-09-03T16:41:53.533Z,22.20
2018-09-03T16:44:22.091Z,22.20
2018-09-03T16:46:50.997Z,22.20
2018-09-03T16:49:19.555Z,22.10
2018-09-03T16:51:48.441Z,22.00
2018-09-03T16:54:17.033Z,21.90
2018-09-03T16:56:45.619Z,21.80
2018-09-03T16:59:14.426Z,21.70
2018-09-03T17:01:43.010Z,21.50
2018-09-03T17:04:11.668Z,21.50
2018-09-03T17:06:40.339Z,21.50
2018-09-03T17:09:08.922Z,21.50
2018-09-03T17:11:37.507Z,21.30
2018-09-03T17:14:06.207Z,21.20
2018-09-03T17:16:35.223Z,21.00
2018-09-03T17:19:03.831Z,20.90
2018-09-03T17:21:32.427Z,20.90
2018-09-03T17:24:00.981Z,20.80
2018-09-03T17:26:29.559Z,20.90
2018-09-03T17:28:58.606Z,20.80
2018-09-03T17:31:27.039Z,20.80
2018-09-03T17:33:55.614Z,20.60
2018-09-03T17:36:24.172Z,20.60
2018-09-03T17:38:52.821Z,20.50
2018-09-03T17:41:21.424Z,20.50
2018-09-03T17:43:49.995Z,20.30
2018-09-03T17:46:18.566Z,20.10
2018-09-03T17:48:47.131Z,19.90
2018-09-03T17:51:15.722Z,19.90
2018-09-03T17:53:44.503Z,19.80
2018-09-03T17:56:13.055Z,19.80
2018-09-03T17:58:41.678Z,19.70
2018-09-03T18:01:10.397Z,19.70
2018-09-03T18:03:39.375Z,19.60
2018-09-03T18:06:08.002Z,19.60
2018-09-03T18:08:36.611Z,19.40
2018-09-03T18:11:05.275Z,19.30
2018-09-03T18:13:33.829Z,19.30
2018-09-03T18:16:02.377Z,19.30
2018-09-03T18:18:30.940Z,19.20
2018-09-03T18:20:59.909Z,19.10
2018-09-03T18:23:28.634Z,19.10
2018-09-03T18:25:57.199Z,19.00
2018-09-03T18:28:25.787Z,19.00
2018-09-03T18:30:54.575Z,18.90
2018-09-03T18:33:23.138Z,18.80
2018-09-03T18:35:51.710Z,18.70
2018-09-03T18:38:20.278Z,18.70
2018-09-03T18:40:48.855Z,18.60
2018-09-03T18:43:17.654Z,18.60
2018-09-03T18:45:46.367Z,18.60
2018-09-03T18:48:14.917Z,18.50
2018-09-03T18:50:43.465Z,18.40
2018-09-03T18:53:12.023Z,18.30
2018-09-03T18:55:40.825Z,18.30
2018-09-03T18:58:09.383Z,18.20
2018-09-03T19:00:37.935Z,18.10
2018-09-03T19:03:06.617Z,18.00
2018-09-03T19:05:35.237Z,18.10
2018-09-03T19:08:03.827Z,18.00
2018-09-03T19:10:32.372Z,17.90
2018-09-03T19:13:00.931Z,17.80
2018-09-03T19:15:29.902Z,17.70
2018-09-03T19:17:58.455Z,17.60
2018-09-03T19:20:27.053Z,17.70
2018-09-03T19:22:55.619Z,17.60
2018-09-03T19:25:24.283Z,17.70
2018-09-03T19:27:52.823Z,17.70
2018-09-03T19:30:21.387Z,17.70
2018-09-03T19:32:50.179Z,17.60
2018-09-03T19:35:18.723Z,17.60
2018-09-03T19:37:47.336Z,17.50
2018-09-03T19:40:16.020Z,17.40
2018-09-03T19:42:45.044Z,17.40
2018-09-03T19:45:13.598Z,17.40
2018-09-03T19:47:42.177Z,17.30
2018-09-03T19:50:10.750Z,17.30
2018-09-03T19:52:39.306Z,17.20
2018-09-03T19:55:07.860Z,17.10
2018-09-03T19:57:36.409Z,17.00
2018-09-03T20:00:05.637Z,16.90
2018-09-03T20:02:34.193Z,16.80
2018-09-03T20:05:02.810Z,16.70
2018-09-03T20:07:31.549Z,16.70
2018-09-03T20:10:00.125Z,16.60
2018-09-03T20:12:28.704Z,16.50
2018-09-03T20:14:57.328Z,16.50
2018-09-03T20:17:26.279Z,16.40
2018-09-03T20:19:54.903Z,16.30
2018-09-03T20:22:23.480Z,16.30
2018-09-03T20:24:52.056Z,16.20
2018-09-03T20:27:20.837Z,16.10
2018-09-03T20:29:49.673Z,16.10
2018-09-03T20:32:18.227Z,16.10
2018-09-03T20:34:46.799Z,16.10
2018-09-03T20:37:15.375Z,16.00
2018-09-03T20:39:43.936Z,15.90
2018-09-03T20:42:12.483Z,15.90
2018-09-03T20:44:41.164Z,15.90
2018-09-03T20:47:09.694Z,15.80
2018-09-03T20:49:38.256Z,15.60
2018-09-03T20:52:06.438Z,15.70
2018-09-03T20:54:34.995Z,15.60
2018-09-03T20:57:03.550Z,15.60
2018-09-03T20:59:32.127Z,15.50
2018-09-03T21:02:00.705Z,15.50
2018-09-03T21:04:29.267Z,15.40
2018-09-03T21:09:26.095Z,15.40
2018-09-03T21:11:55.515Z,15.30
2018-09-03T21:14:24.637Z,15.30
2018-09-03T21:16:53.235Z,15.20
2018-09-03T21:19:21.792Z,15.30
2018-09-03T21:21:50.388Z,15.20
2018-09-03T21:24:18.937Z,15.20
2018-09-03T21:26:47.498Z,15.10
2018-09-03T21:29:16.055Z,15.10
2018-09-03T21:31:44.716Z,15.10
2018-09-03T21:34:13.281Z,15.00
2018-09-03T21:36:42.416Z,15.00
2018-09-03T21:39:11.026Z,14.90
2018-09-03T21:41:39.563Z,14.90
2018-09-03T21:44:08.226Z,14.90
2018-09-03T21:46:36.799Z,14.90
2018-09-03T21:49:05.773Z,14.90
2018-09-03T21:51:34.328Z,14.80
2018-09-03T21:54:02.895Z,14.70
2018-09-03T21:56:31.501Z,14.80
2018-09-03T21:59:00.055Z,14.80
2018-09-03T22:01:28.644Z,14.70
2018-09-03T22:03:57.206Z,14.60
2018-09-03T22:06:25.755Z,14.60
2018-09-03T22:08:54.497Z,14.50
2018-09-03T22:11:23.055Z,14.50
2018-09-03T22:13:51.610Z,14.60
2018-09-03T22:16:20.174Z,14.50
2018-09-03T22:18:48.975Z,14.50
2018-09-03T22:21:17.563Z,14.50
2018-09-03T22:23:46.119Z,14.40
2018-09-03T22:26:14.718Z,14.40
2018-09-03T22:28:43.256Z,14.30
2018-09-03T22:31:11.815Z,14.30
2018-09-03T22:33:40.412Z,14.30
2018-09-03T22:36:09.168Z,14.30
2018-09-03T22:38:37.745Z,14.20
2018-09-03T22:41:06.355Z,14.20
2018-09-03T22:43:34.902Z,14.20
2018-09-03T22:46:03.475Z,14.10
2018-09-03T22:48:32.026Z,14.20
2018-09-03T22:51:00.599Z,14.10
2018-09-03T22:53:29.214Z,14.10
2018-09-03T22:55:57.807Z,14.10
2018-09-03T22:58:26.360Z,14.00
2018-09-03T23:00:55.031Z,14.00
2018-09-03T23:03:23.580Z,13.90
2018-09-03T23:05:52.159Z,13.80
2018-09-03T23:08:20.715Z,13.80
2018-09-03T23:10:49.383Z,13.80
2018-09-03T23:13:17.956Z,13.80
2018-09-03T23:15:52.371Z,13.80
2018-09-03T23:18:22.699Z,13.80
2018-09-03T23:20:51.259Z,13.70
2018-09-03T23:23:20.347Z,13.70
2018-09-03T23:25:49.011Z,13.70
2018-09-03T23:28:17.584Z,13.70
2018-09-03T23:30:46.131Z,13.70
2018-09-03T23:33:14.686Z,13.60
2018-09-03T23:35:43.249Z,13.60
2018-09-03T23:38:11.790Z,13.60
2018-09-03T23:40:40.377Z,13.60
2018-09-03T23:43:08.922Z,13.50
2018-09-03T23:45:37.514Z,13.50
2018-09-03T23:48:06.304Z,13.50
2018-09-03T23:50:35.194Z,13.50
2018-09-03T23:53:04.595Z,13.50
2018-09-03T23:55:33.250Z,13.50
2018-09-03T23:58:01.808Z,13.50
